Time;durP1;ratioP1;P1;durP2;ratioP2;P2;SDS_P1;SDS_P2;PMS_P1;PMS_P2;Temp;Humidity;BMP_temperature;BMP_pressure;BME280_temperature;BME280_humidity;BME280_pressure;Samples;Min_cycle;Max_cycle;Signal;HPM_P1;HPM_P2
2024/04/14 00:01:56;;;;;;;7.53;1.42;;;14.10;99.90;;;;;;5387806;26;20440;-75
2024/04/14 00:04:22;;;;;;;19.17;1.95;;;14.20;99.90;;;;;;5411727;26;20000;-75
2024/04/14 00:06:47;;;;;;;12.27;3.13;;;14.20;99.90;;;;;;5411800;26;19999;-74
2024/04/14 00:09:13;;;;;;;8.90;2.20;;;14.20;99.90;;;;;;5405926;26;19999;-74
2024/04/14 00:11:39;;;;;;;6.15;1.25;;;14.20;99.90;;;;;;5406534;26;20003;-75
2024/04/14 00:14:04;;;;;;;10.45;1.25;;;14.20;99.90;;;;;;5405366;26;20018;-74
2024/04/14 00:16:30;;;;;;;9.55;1.60;;;14.10;99.90;;;;;;5386995;26;20024;-74
2024/04/14 00:18:55;;;;;;;8.77;1.35;;;14.10;99.90;;;;;;5407081;26;20003;-75
2024/04/14 00:21:24;;;;;;;10.82;1.73;;;14.10;99.90;;;;;;5385427;26;20004;-74
2024/04/14 00:23:50;;;;;;;15.98;2.65;;;14.10;99.90;;;;;;5390452;26;20015;-73
2024/04/14 00:26:16;;;;;;;13.02;2.22;;;14.00;99.90;;;;;;5393735;26;20000;-74
2024/04/14 00:28:44;;;;;;;7.72;1.85;;;14.00;99.90;;;;;;5397555;26;20003;-74
2024/04/14 00:31:09;;;;;;;13.98;2.20;;;14.00;99.90;;;;;;5390605;26;19992;-74
2024/04/14 00:33:35;;;;;;;8.85;1.73;;;14.00;99.90;;;;;;5390911;26;20031;-74
2024/04/14 00:36:04;;;;;;;10.32;1.92;;;13.90;99.90;;;;;;5392427;26;20003;-74
2024/04/14 00:38:30;;;;;;;8.35;1.65;;;13.90;99.90;;;;;;5396831;26;20075;-73
2024/04/14 00:40:55;;;;;;;12.82;2.20;;;13.80;99.90;;;;;;5387488;26;20058;-74
2024/04/14 00:43:21;;;;;;;6.88;1.70;;;13.80;99.90;;;;;;5394871;26;20011;-73
2024/04/14 00:45:47;;;;;;;9.00;1.98;;;13.90;99.90;;;;;;5393627;26;20368;-73
2024/04/14 00:48:13;;;;;;;7.20;1.83;;;13.80;99.90;;;;;;5391568;26;20004;-73
2024/04/14 00:50:40;;;;;;;9.23;1.10;;;13.70;99.90;;;;;;5391754;26;20003;-74
2024/04/14 00:53:07;;;;;;;7.97;1.80;;;13.70;99.90;;;;;;5394906;26;20017;-74
2024/04/14 00:55:33;;;;;;;3.75;0.85;;;13.70;99.90;;;;;;5399107;26;20008;-74
2024/04/14 00:57:59;;;;;;;6.13;1.25;;;13.70;99.90;;;;;;5396543;26;20052;-74
2024/04/14 01:00:25;;;;;;;8.30;0.80;;;13.60;99.90;;;;;;5387282;26;20448;-73
2024/04/14 01:02:55;;;;;;;7.53;1.20;;;13.60;99.90;;;;;;5384197;26;20003;-73
2024/04/14 01:05:22;;;;;;;11.50;1.40;;;13.50;99.90;;;;;;5388445;26;20027;-73
2024/04/14 01:07:49;;;;;;;4.68;1.10;;;13.40;99.90;;;;;;5388096;26;20428;-73
2024/04/14 01:10:15;;;;;;;4.60;1.13;;;13.40;99.90;;;;;;5394928;26;20403;-73
2024/04/14 01:12:40;;;;;;;4.43;0.90;;;13.30;99.90;;;;;;5393791;26;20033;-74
2024/04/14 01:15:06;;;;;;;6.45;0.70;;;13.30;99.90;;;;;;5390068;26;20011;-74
2024/04/14 01:17:32;;;;;;;6.32;0.93;;;13.20;99.90;;;;;;5397332;26;20007;-73
2024/04/14 01:19:58;;;;;;;5.40;0.98;;;13.10;99.90;;;;;;5400523;26;20006;-73
2024/04/14 01:22:23;;;;;;;6.40;0.70;;;13.10;99.90;;;;;;5401362;26;20371;-74
2024/04/14 01:24:50;;;;;;;4.95;0.50;;;13.00;99.90;;;;;;5397753;26;20000;-73
2024/04/14 01:27:16;;;;;;;6.15;0.68;;;12.90;99.90;;;;;;5394837;26;20072;-74
2024/04/14 01:29:41;;;;;;;5.45;1.25;;;12.90;99.90;;;;;;5392635;26;20012;-74
2024/04/14 01:32:07;;;;;;;6.05;0.63;;;12.90;99.90;;;;;;5396563;26;19999;-74
2024/04/14 01:34:32;;;;;;;5.97;1.00;;;12.80;99.90;;;;;;5393805;26;20048;-73
2024/04/14 01:36:58;;;;;;;3.58;0.70;;;12.80;99.90;;;;;;5398330;26;19996;-75
2024/04/14 01:39:24;;;;;;;8.55;1.08;;;12.70;99.90;;;;;;5400112;26;20004;-74
2024/04/14 01:41:49;;;;;;;6.85;1.20;;;12.70;99.90;;;;;;5386703;26;20403;-73
2024/04/14 01:44:15;;;;;;;10.52;0.70;;;12.70;99.90;;;;;;5397638;26;19999;-74
2024/04/14 01:46:40;;;;;;;4.43;0.50;;;12.70;99.90;;;;;;5392283;26;20435;-73
2024/04/14 01:49:06;;;;;;;4.63;0.63;;;12.60;99.90;;;;;;5396310;26;19999;-74
2024/04/14 01:51:32;;;;;;;4.63;0.77;;;12.60;99.90;;;;;;5395900;26;20015;-73
2024/04/14 01:53:57;;;;;;;4.00;0.50;;;12.50;99.90;;;;;;5379994;26;21149;-73
2024/04/14 01:56:23;;;;;;;5.75;0.52;;;12.50;99.90;;;;;;5401066;26;20000;-73
2024/04/14 01:58:48;;;;;;;11.30;0.95;;;12.40;99.90;;;;;;5400661;26;20503;-74
2024/04/14 02:01:14;;;;;;;4.38;0.47;;;12.40;99.90;;;;;;5394076;26;20008;-73
2024/04/14 02:03:41;;;;;;;6.43;0.70;;;12.30;99.90;;;;;;5399320;26;20435;-74
2024/04/14 02:06:07;;;;;;;4.78;0.63;;;12.40;99.90;;;;;;5395751;26;19992;-73
2024/04/14 02:08:33;;;;;;;10.88;0.95;;;12.30;99.90;;;;;;5397300;26;20599;-74
2024/04/14 02:11:02;;;;;;;4.65;0.90;;;12.20;99.90;;;;;;5400681;26;20035;-75
2024/04/14 02:13:28;;;;;;;3.65;0.45;;;12.10;99.90;;;;;;5395411;26;20076;-74
2024/04/14 02:15:54;;;;;;;4.25;1.17;;;12.10;99.90;;;;;;5398406;26;20008;-73
2024/04/14 02:18:19;;;;;;;8.30;0.70;;;12.00;99.90;;;;;;5395137;26;20398;-73
2024/04/14 02:20:45;;;;;;;4.38;0.80;;;12.00;99.90;;;;;;5402314;26;20004;-74
2024/04/14 02:23:10;;;;;;;3.80;0.50;;;12.00;99.90;;;;;;5399234;26;20003;-74
2024/04/14 02:25:36;;;;;;;5.45;0.73;;;12.00;99.90;;;;;;5397906;26;20058;-74
2024/04/14 02:28:01;;;;;;;3.92;0.57;;;12.00;99.90;;;;;;5408184;26;20786;-74
2024/04/14 02:30:27;;;;;;;6.20;0.65;;;11.90;99.90;;;;;;5400517;26;20630;-73
2024/04/14 02:32:52;;;;;;;6.93;1.80;;;11.90;99.90;;;;;;5392881;26;20012;-74
2024/04/14 02:35:18;;;;;;;4.60;0.77;;;11.90;99.90;;;;;;5399775;26;20012;-73
2024/04/14 02:37:43;;;;;;;5.10;0.77;;;11.90;99.90;;;;;;5400901;26;20009;-74
2024/04/14 02:40:10;;;;;;;5.20;0.43;;;11.90;99.90;;;;;;5396874;26;20000;-74
2024/04/14 02:42:36;;;;;;;5.50;0.60;;;11.90;99.90;;;;;;5400047;26;20036;-74
2024/04/14 02:45:02;;;;;;;3.72;0.88;;;11.90;99.90;;;;;;5398992;26;22299;-73
2024/04/14 02:47:29;;;;;;;6.47;0.60;;;11.80;99.90;;;;;;5399819;26;20008;-73
2024/04/14 02:49:54;;;;;;;8.77;1.17;;;11.80;99.90;;;;;;5396727;26;20339;-74
2024/04/14 02:52:20;;;;;;;9.13;0.80;;;11.80;99.90;;;;;;5404470;26;20031;-74
2024/04/14 02:54:45;;;;;;;7.82;1.30;;;11.70;99.90;;;;;;5399730;26;20000;-74
2024/04/14 02:57:11;;;;;;;11.55;0.80;;;11.70;99.90;;;;;;5397551;26;20008;-73
2024/04/14 02:59:37;;;;;;;6.07;1.00;;;11.70;99.90;;;;;;5400476;26;20045;-73
2024/04/14 03:02:03;;;;;;;6.05;0.57;;;11.70;99.90;;;;;;5396871;26;20014;-73
2024/04/14 03:04:29;;;;;;;6.32;1.02;;;11.70;99.90;;;;;;5396066;26;20005;-73
2024/04/14 03:06:54;;;;;;;6.72;1.27;;;11.70;99.90;;;;;;5393226;26;20014;-73
2024/04/14 03:09:20;;;;;;;2.53;0.38;;;11.70;99.90;;;;;;5398988;26;20000;-74
2024/04/14 03:11:46;;;;;;;8.23;1.20;;;11.70;99.90;;;;;;5393095;26;19999;-74
2024/04/14 03:14:11;;;;;;;6.28;0.57;;;11.70;99.90;;;;;;5397902;26;19999;-74
2024/04/14 03:16:37;;;;;;;3.97;0.70;;;11.70;99.90;;;;;;5397154;26;20003;-74
2024/04/14 03:19:03;;;;;;;4.47;1.00;;;11.80;99.90;;;;;;5396610;26;20004;-74
2024/04/14 03:21:28;;;;;;;5.80;0.70;;;11.70;99.90;;;;;;5395356;26;20435;-74
2024/04/14 03:23:54;;;;;;;7.93;1.02;;;11.70;99.90;;;;;;5392963;26;20004;-74
2024/04/14 03:26:19;;;;;;;6.00;1.58;;;11.60;99.90;;;;;;5395923;26;19995;-74
2024/04/14 03:28:45;;;;;;;6.40;0.88;;;11.50;99.90;;;;;;5394634;26;20014;-74
2024/04/14 03:31:10;;;;;;;9.00;1.42;;;11.50;99.90;;;;;;5395218;26;20032;-74
2024/04/14 03:33:36;;;;;;;6.22;0.80;;;11.50;99.90;;;;;;5400180;26;20004;-74
2024/04/14 03:36:03;;;;;;;3.50;0.63;;;11.50;99.90;;;;;;5399970;26;20023;-74
2024/04/14 03:38:30;;;;;;;5.32;1.00;;;11.40;99.90;;;;;;5394904;26;20331;-74
2024/04/14 03:40:55;;;;;;;8.20;1.05;;;11.40;99.90;;;;;;5393585;26;20393;-74
2024/04/14 03:43:21;;;;;;;6.55;1.02;;;11.40;99.90;;;;;;5396435;26;20011;-74
2024/04/14 03:45:46;;;;;;;3.50;0.90;;;11.30;99.90;;;;;;5387854;26;20393;-75
2024/04/14 03:48:12;;;;;;;5.57;0.88;;;11.30;99.90;;;;;;5388773;26;20000;-74
2024/04/14 03:50:38;;;;;;;3.17;0.57;;;11.30;99.90;;;;;;5397990;26;20047;-74
2024/04/14 03:53:03;;;;;;;6.05;1.13;;;11.30;99.90;;;;;;5391241;26;20001;-74
2024/04/14 03:55:31;;;;;;;3.55;0.47;;;11.30;99.90;;;;;;5403391;26;20093;-74
2024/04/14 03:57:57;;;;;;;9.10;0.95;;;11.30;99.90;;;;;;5392916;26;20591;-74
2024/04/14 04:00:23;;;;;;;5.88;0.70;;;11.30;99.90;;;;;;5393693;26;20000;-74
2024/04/14 04:02:48;;;;;;;12.10;0.70;;;11.40;99.90;;;;;;5390123;26;20052;-75
2024/04/14 04:05:14;;;;;;;5.80;1.10;;;11.40;99.90;;;;;;5394297;26;20077;-74
2024/04/14 04:07:39;;;;;;;7.20;1.13;;;11.40;99.90;;;;;;5397149;26;20012;-74
2024/04/14 04:10:05;;;;;;;6.72;1.42;;;11.40;99.90;;;;;;5395559;26;20121;-75
2024/04/14 04:12:31;;;;;;;4.93;1.40;;;11.40;99.90;;;;;;5391975;26;20011;-74
2024/04/14 04:14:56;;;;;;;9.82;0.95;;;11.40;99.90;;;;;;5393352;26;20483;-74
2024/04/14 04:17:22;;;;;;;10.73;1.40;;;11.40;99.90;;;;;;5392394;26;20064;-74
2024/04/14 04:19:47;;;;;;;8.77;1.58;;;11.50;99.90;;;;;;5397026;26;20084;-75
2024/04/14 04:22:13;;;;;;;5.00;0.55;;;11.50;99.90;;;;;;5390304;26;20415;-74
2024/04/14 04:24:38;;;;;;;6.22;1.02;;;11.50;99.90;;;;;;5387601;26;20004;-74
2024/04/14 04:27:04;;;;;;;4.60;0.98;;;11.50;99.90;;;;;;5395188;26;20085;-74
2024/04/14 04:29:30;;;;;;;2.70;0.68;;;11.50;99.90;;;;;;5394295;26;20050;-74
2024/04/14 04:31:56;;;;;;;5.50;0.68;;;11.50;99.90;;;;;;5395096;26;20646;-74
2024/04/14 04:34:22;;;;;;;7.05;0.65;;;11.50;99.90;;;;;;5383900;26;20014;-74
2024/04/14 04:36:50;;;;;;;8.88;1.08;;;11.50;99.90;;;;;;5387944;26;20013;-74
2024/04/14 04:39:17;;;;;;;6.50;0.93;;;11.50;99.90;;;;;;5386910;26;20032;-74
2024/04/14 04:41:42;;;;;;;7.15;0.70;;;11.50;99.90;;;;;;5400868;26;20004;-74
2024/04/14 04:44:09;;;;;;;4.70;0.52;;;11.50;99.90;;;;;;5392315;26;20333;-74
2024/04/14 04:46:35;;;;;;;4.57;0.40;;;11.50;99.90;;;;;;5409063;26;20324;-74
2024/04/14 04:49:00;;;;;;;3.70;0.60;;;11.50;99.90;;;;;;5392594;26;20073;-74
2024/04/14 04:51:27;;;;;;;4.03;0.30;;;11.50;99.90;;;;;;5404960;26;20022;-74
2024/04/14 04:53:53;;;;;;;3.80;0.85;;;11.50;99.90;;;;;;5391312;26;19996;-74
2024/04/14 04:56:19;;;;;;;5.55;1.00;;;11.50;99.90;;;;;;5396819;26;20014;-74
2024/04/14 04:58:44;;;;;;;9.63;1.10;;;11.40;99.90;;;;;;5401051;26;20049;-74
2024/04/14 05:01:10;;;;;;;4.28;0.85;;;11.50;99.90;;;;;;5395967;26;20389;-74
2024/04/14 05:03:36;;;;;;;5.15;0.50;;;11.40;99.90;;;;;;5401591;26;20039;-74
2024/04/14 05:06:03;;;;;;;7.55;0.95;;;11.40;99.90;;;;;;5389394;26;20086;-74
2024/04/14 05:08:29;;;;;;;3.75;0.47;;;11.50;99.90;;;;;;5384592;26;20004;-74
2024/04/14 05:10:57;;;;;;;6.13;0.43;;;11.50;99.90;;;;;;5400634;26;20010;-75
2024/04/14 05:13:23;;;;;;;5.18;0.70;;;11.50;99.90;;;;;;5399372;26;20000;-74
2024/04/14 05:15:49;;;;;;;9.50;0.90;;;11.50;99.90;;;;;;5400471;26;20390;-74
2024/04/14 05:18:16;;;;;;;5.70;0.80;;;11.50;99.90;;;;;;5389474;26;20003;-74
2024/04/14 05:20:42;;;;;;;5.43;0.75;;;11.50;99.90;;;;;;5399421;26;20476;-74
2024/04/14 05:23:08;;;;;;;7.70;0.70;;;11.40;99.90;;;;;;5398364;26;20011;-74
2024/04/14 05:25:34;;;;;;;7.95;1.13;;;11.50;99.90;;;;;;5401761;26;20383;-74
2024/04/14 05:28:00;;;;;;;7.82;1.58;;;11.50;99.90;;;;;;5392432;26;20004;-75
2024/04/14 05:30:25;;;;;;;9.23;0.85;;;11.50;99.90;;;;;;5397410;26;20073;-74
2024/04/14 05:32:51;;;;;;;21.17;1.92;;;11.50;99.90;;;;;;5384591;26;20901;-75
2024/04/14 05:35:17;;;;;;;11.60;1.65;;;11.50;99.90;;;;;;5398181;26;20068;-74
2024/04/14 05:37:42;;;;;;;3.83;0.52;;;11.60;99.90;;;;;;5398406;26;20008;-74
2024/04/14 05:40:08;;;;;;;9.82;0.70;;;11.60;99.90;;;;;;5389853;26;20431;-74
2024/04/14 05:42:34;;;;;;;3.55;0.60;;;11.70;99.90;;;;;;5400330;26;20536;-74
2024/04/14 05:44:59;;;;;;;5.75;0.70;;;11.70;99.90;;;;;;5399194;26;20014;-75
2024/04/14 05:47:25;;;;;;;8.65;1.00;;;11.70;99.90;;;;;;5397493;26;20015;-74
2024/04/14 05:49:51;;;;;;;14.18;1.05;;;11.70;99.90;;;;;;5396054;26;19995;-72
2024/04/14 05:52:17;;;;;;;3.13;0.60;;;11.80;99.90;;;;;;5393053;26;20004;-73
2024/04/14 05:54:42;;;;;;;5.07;0.95;;;11.80;99.90;;;;;;5399135;26;20044;-73
2024/04/14 05:57:08;;;;;;;4.95;0.43;;;11.80;99.90;;;;;;5399596;26;20004;-72
2024/04/14 05:59:33;;;;;;;4.13;0.68;;;11.80;99.90;;;;;;5395884;26;20081;-73
2024/04/14 06:01:59;;;;;;;10.85;1.08;;;11.90;99.90;;;;;;5394410;26;20011;-73
2024/04/14 06:04:24;;;;;;;4.53;1.00;;;11.90;99.90;;;;;;5395135;26;20000;-73
2024/04/14 06:06:50;;;;;;;4.72;0.93;;;12.00;99.90;;;;;;5399793;26;20008;-73
2024/04/14 06:09:16;;;;;;;2.45;0.82;;;12.20;99.90;;;;;;5397083;26;20011;-73
2024/04/14 06:11:41;;;;;;;4.22;0.43;;;12.30;99.90;;;;;;5397171;26;20008;-73
2024/04/14 06:14:07;;;;;;;4.25;1.00;;;12.40;99.90;;;;;;5397542;26;20003;-74
2024/04/14 06:16:32;;;;;;;4.55;0.80;;;12.40;99.90;;;;;;5397255;26;20463;-73
2024/04/14 06:18:58;;;;;;;3.60;0.63;;;12.40;99.90;;;;;;5391380;26;20004;-73
2024/04/14 06:21:23;;;;;;;5.68;0.82;;;12.30;99.90;;;;;;5395240;26;20007;-73
2024/04/14 06:23:49;;;;;;;2.55;0.30;;;12.30;99.90;;;;;;5400968;26;20115;-74
2024/04/14 06:26:14;;;;;;;3.55;0.65;;;12.30;99.90;;;;;;5407043;26;24961;-72
2024/04/14 06:28:40;;;;;;;8.57;0.43;;;12.40;99.90;;;;;;5402519;26;20015;-74
2024/04/14 06:31:06;;;;;;;16.00;1.08;;;12.40;99.90;;;;;;5387579;26;20012;-75
2024/04/14 06:33:31;;;;;;;7.15;0.60;;;12.40;99.90;;;;;;5410073;26;20466;-74
2024/04/14 06:35:57;;;;;;;5.47;0.55;;;12.50;99.90;;;;;;5392983;26;20323;-74
2024/04/14 06:38:23;;;;;;;3.15;0.45;;;12.50;99.90;;;;;;5383564;26;20011;-74
2024/04/14 06:40:49;;;;;;;1.52;0.57;;;12.60;99.90;;;;;;5397526;26;20003;-74
2024/04/14 06:43:16;;;;;;;2.50;0.50;;;12.60;99.90;;;;;;5390105;26;20925;-73
2024/04/14 06:45:41;;;;;;;2.95;0.32;;;12.70;99.90;;;;;;5392149;26;20065;-74
2024/04/14 06:48:07;;;;;;;4.70;0.52;;;12.80;99.90;;;;;;5402412;26;20005;-73
2024/04/14 06:50:33;;;;;;;8.23;0.70;;;12.90;99.90;;;;;;5403322;26;19999;-74
2024/04/14 06:52:59;;;;;;;4.72;0.50;;;12.90;99.90;;;;;;5392330;26;20011;-74
2024/04/14 06:55:25;;;;;;;9.10;0.85;;;13.00;99.90;;;;;;5381557;26;20074;-74
2024/04/14 06:57:51;;;;;;;13.25;0.82;;;13.00;99.90;;;;;;5390643;26;20012;-74
2024/04/14 07:00:16;;;;;;;11.30;1.10;;;13.00;99.90;;;;;;5391095;26;20011;-74
2024/04/14 07:02:42;;;;;;;7.15;0.70;;;13.00;99.90;;;;;;5407247;26;19999;-73
2024/04/14 07:05:07;;;;;;;6.00;0.50;;;13.00;99.90;;;;;;5394453;26;20049;-74
2024/04/14 07:07:33;;;;;;;6.55;1.10;;;13.10;99.90;;;;;;5401316;26;20010;-73
2024/04/14 07:09:58;;;;;;;1.27;0.28;;;13.20;99.90;;;;;;5391188;26;20000;-73
2024/04/14 07:12:24;;;;;;;6.38;0.88;;;13.20;99.90;;;;;;5391518;26;20008;-73
2024/04/14 07:14:50;;;;;;;4.97;0.57;;;13.30;99.90;;;;;;5394176;26;20071;-73
2024/04/14 07:17:15;;;;;;;13.02;1.00;;;13.30;99.90;;;;;;5391117;26;20335;-72
2024/04/14 07:19:41;;;;;;;5.97;0.90;;;13.50;99.90;;;;;;5397057;26;20336;-73
2024/04/14 07:22:06;;;;;;;1.67;0.40;;;13.70;99.90;;;;;;5394041;26;20334;-73
2024/04/14 07:24:32;;;;;;;6.90;0.90;;;14.00;99.90;;;;;;5393088;26;20412;-73
2024/04/14 07:26:57;;;;;;;8.98;1.30;;;14.20;99.90;;;;;;5396296;26;20011;-74
2024/04/14 07:29:23;;;;;;;4.07;0.75;;;14.30;99.90;;;;;;5392535;26;20046;-73
2024/04/14 07:31:49;;;;;;;7.85;0.70;;;14.40;99.90;;;;;;5394596;26;20000;-73
2024/04/14 07:34:14;;;;;;;3.67;0.60;;;14.50;99.90;;;;;;5401544;26;19999;-73
2024/04/14 07:36:40;;;;;;;4.78;0.90;;;14.50;99.90;;;;;;5394260;26;20011;-73
2024/04/14 07:39:06;;;;;;;3.65;0.55;;;14.60;99.90;;;;;;5396138;26;20434;-73
2024/04/14 07:41:31;;;;;;;11.38;1.35;;;14.60;99.90;;;;;;5395724;26;20026;-73
2024/04/14 07:43:57;;;;;;;9.48;0.85;;;14.80;99.90;;;;;;5389957;26;20008;-73
2024/04/14 07:46:27;;;;;;;4.78;0.90;;;14.90;99.90;;;;;;5391680;26;20030;-73
2024/04/14 07:48:53;;;;;;;3.85;0.55;;;15.00;99.90;;;;;;5392140;26;20004;-73
2024/04/14 07:51:18;;;;;;;7.43;0.57;;;15.00;99.90;;;;;;5391986;26;20055;-73
2024/04/14 07:53:44;;;;;;;7.10;0.73;;;15.00;99.90;;;;;;5396241;26;20004;-73
2024/04/14 07:56:09;;;;;;;3.83;0.32;;;15.00;99.90;;;;;;5392868;26;20443;-73
2024/04/14 07:58:35;;;;;;;5.45;0.73;;;15.00;99.90;;;;;;5398435;26;20353;-73
2024/04/14 08:01:02;;;;;;;5.00;1.15;;;15.00;99.90;;;;;;5393187;26;20027;-74
2024/04/14 08:03:27;;;;;;;9.75;0.45;;;15.10;99.90;;;;;;5388544;26;20000;-73
2024/04/14 08:05:53;;;;;;;4.65;0.90;;;15.00;99.90;;;;;;5394395;26;20000;-73
2024/04/14 08:08:18;;;;;;;4.43;0.77;;;14.90;99.90;;;;;;5383160;26;20028;-73
2024/04/14 08:10:44;;;;;;;9.55;0.60;;;14.90;99.90;;;;;;5401759;26;20004;-73
2024/04/14 08:13:09;;;;;;;4.95;1.15;;;14.70;99.90;;;;;;5387745;26;20004;-73
2024/04/14 08:15:35;;;;;;;5.35;0.60;;;14.70;99.90;;;;;;5401007;26;20013;-73
2024/04/14 08:18:01;;;;;;;1.88;0.45;;;14.60;99.90;;;;;;5384438;26;20011;-74
2024/04/14 08:20:26;;;;;;;5.32;0.80;;;14.50;99.90;;;;;;5394103;26;20073;-73
2024/04/14 08:22:52;;;;;;;7.32;1.10;;;14.40;99.90;;;;;;5401539;26;20447;-73
2024/04/14 08:25:18;;;;;;;3.17;0.60;;;14.50;99.90;;;;;;5388522;26;20075;-73
2024/04/14 08:27:44;;;;;;;4.00;0.65;;;14.60;99.90;;;;;;5395112;26;20098;-73
2024/04/14 08:30:10;;;;;;;3.00;0.50;;;14.60;99.90;;;;;;5403363;26;20415;-73
2024/04/14 08:32:35;;;;;;;3.22;0.50;;;14.70;99.90;;;;;;5390860;26;20018;-73
2024/04/14 08:35:02;;;;;;;2.60;0.50;;;14.70;99.70;;;;;;5394517;26;20008;-73
2024/04/14 08:37:28;;;;;;;6.40;0.40;;;14.60;99.40;;;;;;5396792;26;20050;-73
2024/04/14 08:39:54;;;;;;;3.17;0.40;;;14.70;99.00;;;;;;5398231;26;20000;-73
2024/04/14 08:42:20;;;;;;;3.60;0.30;;;14.70;97.70;;;;;;5400810;26;20115;-73
2024/04/14 08:44:47;;;;;;;4.88;0.75;;;14.90;97.50;;;;;;5398445;26;20003;-73
2024/04/14 08:47:16;;;;;;;5.10;0.47;;;15.00;96.80;;;;;;5399775;26;20003;-73
2024/04/14 08:49:43;;;;;;;4.53;0.35;;;15.10;95.60;;;;;;5396985;26;20122;-73
2024/04/14 08:52:10;;;;;;;2.28;0.45;;;15.10;96.10;;;;;;5397044;26;20027;-73
2024/04/14 08:54:38;;;;;;;3.00;0.40;;;15.00;94.70;;;;;;5388342;26;20076;-73
2024/04/14 08:57:05;;;;;;;3.30;0.40;;;14.90;95.20;;;;;;5389756;26;20004;-73
2024/04/14 08:59:31;;;;;;;3.25;0.50;;;15.00;96.00;;;;;;5394993;26;20019;-73
2024/04/14 09:01:57;;;;;;;2.83;0.40;;;15.10;95.90;;;;;;5392153;26;20023;-73
2024/04/14 09:04:23;;;;;;;4.07;0.30;;;15.20;95.50;;;;;;5399848;26;20015;-73
2024/04/14 09:06:49;;;;;;;2.78;0.30;;;15.40;95.30;;;;;;5397979;26;20015;-73
2024/04/14 09:09:15;;;;;;;6.35;0.38;;;15.60;95.00;;;;;;5393310;26;20509;-73
2024/04/14 09:11:55;;;;;;;3.72;0.30;;;15.80;95.20;;;;;;5393837;26;20097;-73
2024/04/14 09:14:22;;;;;;;1.95;0.25;;;16.10;95.90;;;;;;5403429;26;20096;-73
2024/04/14 09:16:51;;;;;;;3.00;0.50;;;16.10;94.30;;;;;;5395454;26;20003;-73
2024/04/14 09:19:18;;;;;;;4.80;0.35;;;15.90;94.70;;;;;;5394067;26;20027;-73
2024/04/14 09:21:44;;;;;;;2.22;0.38;;;15.80;94.30;;;;;;5396144;26;20372;-73
2024/04/14 09:24:09;;;;;;;1.42;0.20;;;15.60;96.10;;;;;;5394305;26;20000;-73
2024/04/14 09:26:36;;;;;;;6.28;0.60;;;15.60;94.60;;;;;;5402233;26;20080;-73
2024/04/14 09:29:05;;;;;;;3.75;0.35;;;15.60;95.20;;;;;;5398449;26;20599;-74
2024/04/14 09:31:31;;;;;;;3.22;0.28;;;15.70;95.60;;;;;;5397024;26;20015;-73
2024/04/14 09:33:57;;;;;;;5.53;0.47;;;15.90;95.10;;;;;;5393333;26;20005;-73
2024/04/14 09:36:26;;;;;;;3.15;0.80;;;16.00;94.70;;;;;;5395608;26;20448;-73
2024/04/14 09:38:55;;;;;;;4.80;0.67;;;16.10;94.40;;;;;;5400202;26;20000;-73
2024/04/14 09:41:21;;;;;;;4.75;0.73;;;16.00;94.10;;;;;;5401880;26;19992;-73
2024/04/14 09:43:50;;;;;;;5.32;0.50;;;16.20;94.80;;;;;;5391324;26;20028;-73
2024/04/14 09:46:16;;;;;;;3.63;0.77;;;16.50;94.20;;;;;;5394974;26;20387;-73
2024/04/14 09:48:44;;;;;;;4.05;0.57;;;16.70;94.70;;;;;;5401224;26;20076;-73
2024/04/14 09:51:09;;;;;;;8.13;0.60;;;16.90;94.60;;;;;;5398897;26;20019;-73
2024/04/14 09:53:35;;;;;;;1.55;0.43;;;16.90;94.50;;;;;;5405907;26;20003;-73
2024/04/14 09:56:05;;;;;;;4.95;0.73;;;17.00;94.30;;;;;;5395832;26;20042;-74
2024/04/14 09:58:30;;;;;;;13.27;0.88;;;17.00;94.80;;;;;;5389330;26;20005;-73
2024/04/14 10:00:59;;;;;;;2.40;0.55;;;17.00;95.10;;;;;;5399538;26;20065;-72
2024/04/14 10:03:30;;;;;;;4.45;0.40;;;17.10;95.30;;;;;;5397004;26;20007;-73
2024/04/14 10:05:57;;;;;;;3.28;0.95;;;17.10;93.60;;;;;;5396319;26;20456;-73
2024/04/14 10:08:22;;;;;;;1.77;0.20;;;17.00;94.50;;;;;;5394959;26;20076;-73
2024/04/14 10:10:55;;;;;;;3.15;0.17;;;16.80;93.80;;;;;;5402510;26;20003;-73
2024/04/14 10:13:20;;;;;;;1.50;0.50;;;16.90;93.50;;;;;;5395488;26;20018;-73
2024/04/14 10:15:56;;;;;;;1.27;0.30;;;16.90;93.50;;;;;;5394047;26;20439;-73
2024/04/14 10:18:24;;;;;;;2.67;0.20;;;16.90;94.00;;;;;;5396422;26;19995;-73
2024/04/14 10:20:50;;;;;;;4.57;0.52;;;17.10;93.70;;;;;;5392651;26;20036;-73
2024/04/14 10:23:20;;;;;;;4.05;0.47;;;17.20;93.10;;;;;;5398734;26;20047;-73
2024/04/14 10:25:47;;;;;;;4.38;1.15;;;17.30;92.10;;;;;;5395812;26;19995;-73
2024/04/14 10:28:20;;;;;;;3.10;0.85;;;16.80;92.10;;;;;;5397445;26;20008;-73
2024/04/14 10:30:49;;;;;;;2.95;0.52;;;16.60;92.00;;;;;;5396454;26;20530;-73
2024/04/14 10:33:23;;;;;;;6.95;0.40;;;16.50;93.10;;;;;;5395414;26;20012;-73
2024/04/14 10:36:05;;;;;;;2.33;0.30;;;16.50;92.80;;;;;;5391595;26;20792;-73
2024/04/14 10:38:32;;;;;;;3.50;0.57;;;16.60;94.40;;;;;;5402006;26;20463;-73
2024/04/14 10:41:01;;;;;;;3.05;0.52;;;16.60;94.10;;;;;;5389754;26;20007;-73
2024/04/14 10:43:27;;;;;;;2.60;0.30;;;16.60;93.60;;;;;;5396042;26;20003;-73
2024/04/14 10:45:58;;;;;;;3.35;0.30;;;16.60;93.60;;;;;;5390848;26;20000;-73
2024/04/14 10:48:23;;;;;;;1.35;0.30;;;16.80;94.00;;;;;;5391214;26;19996;-73
2024/04/14 10:50:49;;;;;;;2.90;0.45;;;16.90;93.80;;;;;;5400498;26;20010;-73
2024/04/14 10:53:14;;;;;;;3.20;0.50;;;16.90;93.90;;;;;;5390541;26;20015;-74
2024/04/14 10:55:40;;;;;;;1.35;0.20;;;16.90;94.50;;;;;;5393674;26;20035;-73
2024/04/14 10:58:06;;;;;;;3.20;0.47;;;17.00;93.90;;;;;;5397516;26;20440;-73
2024/04/14 11:00:31;;;;;;;4.32;0.40;;;17.00;93.70;;;;;;5377701;26;20039;-73
2024/04/14 11:02:58;;;;;;;3.42;0.50;;;17.00;93.10;;;;;;5394710;26;19999;-72
2024/04/14 11:05:24;;;;;;;3.25;0.40;;;16.80;93.80;;;;;;5396403;26;20011;-73
2024/04/14 11:07:51;;;;;;;3.22;0.60;;;16.80;94.70;;;;;;5390859;26;20027;-73
2024/04/14 11:10:19;;;;;;;2.40;0.30;;;16.80;93.50;;;;;;5392823;26;20011;-73
2024/04/14 11:12:45;;;;;;;3.45;0.40;;;16.60;93.30;;;;;;5393157;26;19999;-73
2024/04/14 11:15:11;;;;;;;1.77;0.20;;;16.50;94.50;;;;;;5393714;26;20081;-73
2024/04/14 11:17:37;;;;;;;5.07;0.40;;;16.60;95.30;;;;;;5390226;26;20043;-73
2024/04/14 11:20:02;;;;;;;3.22;0.50;;;16.70;95.30;;;;;;5386123;26;20036;-73
2024/04/14 11:22:30;;;;;;;6.68;0.98;;;16.80;94.20;;;;;;5401335;26;20452;-73
2024/04/14 11:24:58;;;;;;;4.72;0.40;;;16.60;94.30;;;;;;5387248;26;20083;-73
2024/04/14 11:27:24;;;;;;;3.03;0.40;;;16.50;94.40;;;;;;5391125;26;20522;-74
2024/04/14 11:29:50;;;;;;;8.82;0.57;;;16.40;94.60;;;;;;5393541;26;20023;-73
2024/04/14 11:32:32;;;;;;;2.33;0.65;;;16.60;94.80;;;;;;5390121;26;20011;-73
2024/04/14 11:34:59;;;;;;;1.92;0.35;;;16.60;94.20;;;;;;5401333;26;20000;-73
2024/04/14 11:37:28;;;;;;;7.45;0.75;;;16.70;94.40;;;;;;5398775;26;20031;-73
2024/04/14 11:39:56;;;;;;;1.52;0.50;;;16.80;94.10;;;;;;5400416;26;20003;-73
2024/04/14 11:42:22;;;;;;;4.47;0.70;;;16.90;94.40;;;;;;5400617;26;20019;-73
2024/04/14 11:44:47;;;;;;;3.35;0.30;;;17.00;94.80;;;;;;5396809;26;20035;-73
2024/04/14 11:47:13;;;;;;;5.20;0.43;;;16.90;93.60;;;;;;5398493;26;20004;-73
2024/04/14 11:49:38;;;;;;;1.80;0.45;;;17.00;93.90;;;;;;5401729;26;20014;-73
2024/04/14 11:52:04;;;;;;;1.77;0.22;;;16.90;94.00;;;;;;5387348;26;19996;-72
2024/04/14 11:54:30;;;;;;;2.22;0.30;;;16.80;94.60;;;;;;5390392;26;20000;-74
2024/04/14 11:56:56;;;;;;;4.32;0.60;;;16.80;94.40;;;;;;5404017;26;20474;-73
2024/04/14 11:59:21;;;;;;;5.68;0.43;;;16.80;93.90;;;;;;5391467;26;19996;-74
2024/04/14 12:01:47;;;;;;;6.32;0.43;;;16.40;93.80;;;;;;5397178;26;20032;-73
2024/04/14 12:04:12;;;;;;;1.48;0.22;;;16.30;94.50;;;;;;5386152;26;20015;-73
2024/04/14 12:06:38;;;;;;;4.68;0.70;;;16.30;94.80;;;;;;5399747;26;20015;-73
2024/04/14 12:09:03;;;;;;;3.40;0.70;;;16.40;95.00;;;;;;5400883;26;20011;-73
2024/04/14 12:11:29;;;;;;;5.63;0.50;;;16.40;95.20;;;;;;5405579;26;20011;-74
2024/04/14 12:13:55;;;;;;;4.43;0.93;;;16.40;95.20;;;;;;5398414;26;20015;-73
2024/04/14 12:16:20;;;;;;;1.70;0.30;;;16.40;95.50;;;;;;5395385;26;20028;-73
2024/04/14 12:18:46;;;;;;;4.35;0.70;;;16.40;94.50;;;;;;5394227;26;20464;-73
2024/04/14 12:21:12;;;;;;;4.75;0.70;;;16.20;94.10;;;;;;5392696;26;20010;-73
2024/04/14 12:23:38;;;;;;;2.97;0.50;;;16.10;94.90;;;;;;5394344;26;20031;-73
2024/04/14 12:26:03;;;;;;;3.50;0.50;;;16.10;95.70;;;;;;5389527;26;20002;-73
2024/04/14 12:28:29;;;;;;;11.98;0.60;;;15.90;94.80;;;;;;5396427;26;20003;-73
2024/04/14 12:30:54;;;;;;;2.97;0.65;;;15.90;95.50;;;;;;5395994;26;20004;-73
2024/04/14 12:33:20;;;;;;;2.50;0.52;;;15.90;96.50;;;;;;5397341;26;20007;-73
2024/04/14 12:35:45;;;;;;;1.90;0.40;;;15.90;94.80;;;;;;5396835;26;20018;-73
2024/04/14 12:38:11;;;;;;;2.90;0.50;;;15.80;94.30;;;;;;5399813;26;20073;-73
2024/04/14 12:40:37;;;;;;;3.50;0.40;;;15.80;94.90;;;;;;5392731;26;20348;-73